sensor_id;sensor_type;location;lat;lon;timestamp;P1;durP1;ratioP1;P2;durP2;ratioP2
1523;SDS011;755;53.658;10.118;2022-12-08T00:06:35;20.40;;;11.80;;
1523;SDS011;755;53.658;10.118;2022-12-08T00:16:57;26.92;;;12.88;;
1523;SDS011;755;53.658;10.118;2022-12-08T00:27:01;30.48;;;14.10;;
1523;SDS011;755;53.658;10.118;2022-12-08T00:37:05;35.22;;;16.83;;
1523;SDS011;755;53.658;10.118;2022-12-08T00:47:11;39.60;;;17.17;;
1523;SDS011;755;53.658;10.118;2022-12-08T00:57:16;45.65;;;19.88;;
1523;SDS011;755;53.658;10.118;2022-12-08T01:07:19;37.45;;;17.83;;
1523;SDS011;755;53.658;10.118;2022-12-08T01:17:23;32.13;;;14.55;;
1523;SDS011;755;53.658;10.118;2022-12-08T01:27:26;26.20;;;13.48;;
1523;SDS011;755;53.658;10.118;2022-12-08T01:37:30;25.02;;;11.77;;
1523;SDS011;755;53.658;10.118;2022-12-08T01:47:36;32.28;;;13.00;;
1523;SDS011;755;53.658;10.118;2022-12-08T01:57:44;23.80;;;10.82;;
1523;SDS011;755;53.658;10.118;2022-12-08T02:07:49;19.25;;;11.07;;
1523;SDS011;755;53.658;10.118;2022-12-08T02:17:57;25.27;;;10.48;;
1523;SDS011;755;53.658;10.118;2022-12-08T02:28:14;17.45;;;8.48;;
1523;SDS011;755;53.658;10.118;2022-12-08T02:38:44;11.43;;;6.47;;
1523;SDS011;755;53.658;10.118;2022-12-08T02:48:50;11.98;;;6.45;;
1523;SDS011;755;53.658;10.118;2022-12-08T02:58:58;14.07;;;7.88;;
1523;SDS011;755;53.658;10.118;2022-12-08T03:09:13;15.02;;;9.18;;
1523;SDS011;755;53.658;10.118;2022-12-08T03:19:26;15.60;;;8.65;;
1523;SDS011;755;53.658;10.118;2022-12-08T03:29:30;12.45;;;7.72;;
1523;SDS011;755;53.658;10.118;2022-12-08T03:39:35;12.40;;;5.93;;
1523;SDS011;755;53.658;10.118;2022-12-08T03:49:37;9.93;;;5.95;;
1523;SDS011;755;53.658;10.118;2022-12-08T03:59:41;9.90;;;5.07;;
1523;SDS011;755;53.658;10.118;2022-12-08T04:09:44;7.00;;;3.55;;
1523;SDS011;755;53.658;10.118;2022-12-08T04:19:47;7.28;;;3.47;;
1523;SDS011;755;53.658;10.118;2022-12-08T04:29:50;4.22;;;2.95;;
1523;SDS011;755;53.658;10.118;2022-12-08T04:39:54;11.40;;;3.25;;
1523;SDS011;755;53.658;10.118;2022-12-08T04:49:56;4.85;;;2.95;;
1523;SDS011;755;53.658;10.118;2022-12-08T05:00:00;5.28;;;3.40;;
1523;SDS011;755;53.658;10.118;2022-12-08T05:10:03;7.22;;;3.75;;
1523;SDS011;755;53.658;10.118;2022-12-08T05:20:08;5.25;;;3.40;;
1523;SDS011;755;53.658;10.118;2022-12-08T05:30:11;6.20;;;3.10;;
1523;SDS011;755;53.658;10.118;2022-12-08T05:40:16;9.77;;;3.50;;
1523;SDS011;755;53.658;10.118;2022-12-08T05:50:18;7.95;;;4.20;;
1523;SDS011;755;53.658;10.118;2022-12-08T06:00:22;6.25;;;3.90;;
1523;SDS011;755;53.658;10.118;2022-12-08T06:10:24;6.65;;;3.65;;
1523;SDS011;755;53.658;10.118;2022-12-08T06:20:28;5.18;;;3.47;;
1523;SDS011;755;53.658;10.118;2022-12-08T06:30:31;4.25;;;2.92;;
1523;SDS011;755;53.658;10.118;2022-12-08T06:40:35;4.50;;;2.95;;
1523;SDS011;755;53.658;10.118;2022-12-08T06:50:37;5.70;;;3.42;;
1523;SDS011;755;53.658;10.118;2022-12-08T07:00:41;6.75;;;3.38;;
1523;SDS011;755;53.658;10.118;2022-12-08T07:10:44;6.57;;;4.15;;
1523;SDS011;755;53.658;10.118;2022-12-08T07:20:48;6.40;;;4.45;;
1523;SDS011;755;53.658;10.118;2022-12-08T07:30:51;8.25;;;5.53;;
1523;SDS011;755;53.658;10.118;2022-12-08T07:40:55;12.25;;;5.80;;
1523;SDS011;755;53.658;10.118;2022-12-08T07:50:59;15.88;;;7.47;;
1523;SDS011;755;53.658;10.118;2022-12-08T08:01:03;14.13;;;7.80;;
1523;SDS011;755;53.658;10.118;2022-12-08T08:11:06;16.33;;;8.35;;
1523;SDS011;755;53.658;10.118;2022-12-08T08:21:10;15.48;;;8.73;;
1523;SDS011;755;53.658;10.118;2022-12-08T08:31:12;15.90;;;8.63;;
1523;SDS011;755;53.658;10.118;2022-12-08T08:41:16;17.95;;;9.48;;
1523;SDS011;755;53.658;10.118;2022-12-08T08:51:19;13.48;;;7.82;;
1523;SDS011;755;53.658;10.118;2022-12-08T09:01:24;12.30;;;6.65;;
1523;SDS011;755;53.658;10.118;2022-12-08T09:11:30;11.50;;;6.85;;
1523;SDS011;755;53.658;10.118;2022-12-08T09:21:35;15.07;;;7.43;;
1523;SDS011;755;53.658;10.118;2022-12-08T09:31:37;12.20;;;6.15;;
1523;SDS011;755;53.658;10.118;2022-12-08T09:41:43;10.80;;;6.45;;
1523;SDS011;755;53.658;10.118;2022-12-08T09:51:51;14.65;;;7.65;;
1523;SDS011;755;53.658;10.118;2022-12-08T10:01:57;15.63;;;7.60;;
1523;SDS011;755;53.658;10.118;2022-12-08T10:12:02;13.47;;;7.60;;
1523;SDS011;755;53.658;10.118;2022-12-08T10:22:17;15.18;;;7.25;;
1523;SDS011;755;53.658;10.118;2022-12-08T10:32:24;24.10;;;9.55;;
1523;SDS011;755;53.658;10.118;2022-12-08T10:42:36;58.60;;;12.75;;
1523;SDS011;755;53.658;10.118;2022-12-08T10:52:41;20.88;;;7.85;;
1523;SDS011;755;53.658;10.118;2022-12-08T11:02:53;13.15;;;6.63;;
1523;SDS011;755;53.658;10.118;2022-12-08T11:13:01;18.70;;;6.93;;
1523;SDS011;755;53.658;10.118;2022-12-08T11:23:17;16.17;;;5.97;;
1523;SDS011;755;53.658;10.118;2022-12-08T11:33:22;12.57;;;6.40;;
1523;SDS011;755;53.658;10.118;2022-12-08T11:43:28;12.88;;;6.68;;
1523;SDS011;755;53.658;10.118;2022-12-08T11:53:40;16.95;;;6.55;;
1523;SDS011;755;53.658;10.118;2022-12-08T12:03:51;15.68;;;6.55;;
1523;SDS011;755;53.658;10.118;2022-12-08T12:14:02;13.15;;;6.60;;
1523;SDS011;755;53.658;10.118;2022-12-08T12:24:16;12.30;;;5.82;;
1523;SDS011;755;53.658;10.118;2022-12-08T12:34:22;12.25;;;6.18;;
1523;SDS011;755;53.658;10.118;2022-12-08T12:44:42;13.40;;;5.93;;
1523;SDS011;755;53.658;10.118;2022-12-08T12:55:21;10.23;;;4.82;;
1523;SDS011;755;53.658;10.118;2022-12-08T13:05:46;10.75;;;5.68;;
1523;SDS011;755;53.658;10.118;2022-12-08T13:15:53;11.82;;;5.63;;
1523;SDS011;755;53.658;10.118;2022-12-08T13:26:10;16.00;;;6.53;;
1523;SDS011;755;53.658;10.118;2022-12-08T13:36:25;14.15;;;5.90;;
1523;SDS011;755;53.658;10.118;2022-12-08T13:46:36;8.77;;;5.55;;
1523;SDS011;755;53.658;10.118;2022-12-08T13:56:43;9.75;;;5.95;;
1523;SDS011;755;53.658;10.118;2022-12-08T14:06:48;11.32;;;5.57;;
1523;SDS011;755;53.658;10.118;2022-12-08T14:16:54;12.73;;;5.75;;
1523;SDS011;755;53.658;10.118;2022-12-08T14:26:59;14.70;;;7.57;;
1523;SDS011;755;53.658;10.118;2022-12-08T14:37:02;12.90;;;7.20;;
1523;SDS011;755;53.658;10.118;2022-12-08T14:47:07;18.75;;;8.90;;
1523;SDS011;755;53.658;10.118;2022-12-08T14:57:11;26.33;;;11.27;;
1523;SDS011;755;53.658;10.118;2022-12-08T15:07:17;18.30;;;9.23;;
1523;SDS011;755;53.658;10.118;2022-12-08T15:17:25;18.05;;;9.40;;
1523;SDS011;755;53.658;10.118;2022-12-08T15:27:32;20.00;;;10.85;;
1523;SDS011;755;53.658;10.118;2022-12-08T15:37:34;18.92;;;10.63;;
1523;SDS011;755;53.658;10.118;2022-12-08T15:47:38;24.52;;;11.13;;
1523;SDS011;755;53.658;10.118;2022-12-08T15:57:42;35.38;;;14.02;;
1523;SDS011;755;53.658;10.118;2022-12-08T16:07:48;36.78;;;15.45;;
1523;SDS011;755;53.658;10.118;2022-12-08T16:17:51;31.23;;;12.80;;
1523;SDS011;755;53.658;10.118;2022-12-08T16:28:00;30.35;;;10.70;;
1523;SDS011;755;53.658;10.118;2022-12-08T16:38:05;21.42;;;9.45;;
1523;SDS011;755;53.658;10.118;2022-12-08T16:48:11;30.63;;;12.50;;
1523;SDS011;755;53.658;10.118;2022-12-08T16:58:15;29.52;;;12.55;;
1523;SDS011;755;53.658;10.118;2022-12-08T17:08:20;26.52;;;11.57;;
1523;SDS011;755;53.658;10.118;2022-12-08T17:18:22;40.40;;;15.25;;
1523;SDS011;755;53.658;10.118;2022-12-08T17:28:26;49.47;;;18.95;;
1523;SDS011;755;53.658;10.118;2022-12-08T17:38:29;36.05;;;14.98;;
1523;SDS011;755;53.658;10.118;2022-12-08T17:48:35;34.65;;;13.15;;
1523;SDS011;755;53.658;10.118;2022-12-08T17:58:39;37.75;;;14.60;;
1523;SDS011;755;53.658;10.118;2022-12-08T18:08:43;45.85;;;14.98;;
1523;SDS011;755;53.658;10.118;2022-12-08T18:18:45;54.53;;;21.80;;
1523;SDS011;755;53.658;10.118;2022-12-08T18:28:49;51.38;;;21.75;;
1523;SDS011;755;53.658;10.118;2022-12-08T18:38:52;46.88;;;21.30;;
1523;SDS011;755;53.658;10.118;2022-12-08T18:48:56;50.67;;;20.80;;
1523;SDS011;755;53.658;10.118;2022-12-08T18:58:59;51.65;;;20.77;;
1523;SDS011;755;53.658;10.118;2022-12-08T19:09:05;46.13;;;18.95;;
1523;SDS011;755;53.658;10.118;2022-12-08T19:19:08;42.37;;;17.93;;
1523;SDS011;755;53.658;10.118;2022-12-08T19:29:12;57.67;;;22.08;;
1523;SDS011;755;53.658;10.118;2022-12-08T19:39:15;51.38;;;21.17;;
1523;SDS011;755;53.658;10.118;2022-12-08T19:49:37;50.45;;;21.45;;
1523;SDS011;755;53.658;10.118;2022-12-08T19:59:39;56.40;;;22.50;;
1523;SDS011;755;53.658;10.118;2022-12-08T20:09:45;59.35;;;21.45;;
1523;SDS011;755;53.658;10.118;2022-12-08T20:19:48;56.05;;;21.80;;
1523;SDS011;755;53.658;10.118;2022-12-08T20:29:52;55.05;;;22.60;;
1523;SDS011;755;53.658;10.118;2022-12-08T20:39:54;54.47;;;21.23;;
1523;SDS011;755;53.658;10.118;2022-12-08T20:49:58;57.20;;;24.60;;
1523;SDS011;755;53.658;10.118;2022-12-08T21:00:00;71.07;;;26.10;;
1523;SDS011;755;53.658;10.118;2022-12-08T21:10:05;79.03;;;28.95;;
1523;SDS011;755;53.658;10.118;2022-12-08T21:20:08;72.50;;;30.23;;
1523;SDS011;755;53.658;10.118;2022-12-08T21:30:15;78.53;;;26.75;;
1523;SDS011;755;53.658;10.118;2022-12-08T21:40:17;74.05;;;27.05;;
1523;SDS011;755;53.658;10.118;2022-12-08T21:50:21;85.75;;;26.67;;
1523;SDS011;755;53.658;10.118;2022-12-08T22:00:24;72.28;;;25.25;;
1523;SDS011;755;53.658;10.118;2022-12-08T22:10:28;72.78;;;26.13;;
1523;SDS011;755;53.658;10.118;2022-12-08T22:20:32;63.67;;;24.92;;
1523;SDS011;755;53.658;10.118;2022-12-08T22:30:36;73.40;;;26.42;;
1523;SDS011;755;53.658;10.118;2022-12-08T22:40:39;68.05;;;27.20;;
1523;SDS011;755;53.658;10.118;2022-12-08T22:50:42;68.05;;;25.88;;
1523;SDS011;755;53.658;10.118;2022-12-08T23:00:45;63.40;;;22.65;;
1523;SDS011;755;53.658;10.118;2022-12-08T23:10:49;69.50;;;23.83;;
1523;SDS011;755;53.658;10.118;2022-12-08T23:20:52;65.90;;;22.43;;
1523;SDS011;755;53.658;10.118;2022-12-08T23:30:58;57.97;;;21.88;;
1523;SDS011;755;53.658;10.118;2022-12-08T23:41:00;62.17;;;20.77;;
1523;SDS011;755;53.658;10.118;2022-12-08T23:51:05;57.03;;;19.65;;
